Graz, Austria
Current Conditions -  °F | °C
As of 7:20 PM on Thursday 30 Oct 2014 (Local Time) from LOWG Reporting Station
Few Clouds Few Clouds  
Wind Chill: 43°   Ceiling: Unl
Heat Index: 43°   Visibility: 6mi
Dew Point: 39°   Wind: 2mph
Humidity: 87%   Direction: 110°ESE
Pressure: 30.3"   Gusts: NA
Location:  47.08°N, 15.42°E
Report Text: LOWG 301720Z 11002KT 9999 FEW035 06/04 Q1026 NOSIG
Loading
Personal Weather Stations






























Interactive Weather Map
Tropical Storm Tracking
New forecast layout! Learn more

10-Day Weather Forecast

Advertisements
Track Severe Weather on mobile